Terminal Aerodrome Forecast
Issued by NWS Nashville, TN

Home | Current Version | Previous Version | Text Only | Print | Product List | Glossary On
Versions: 1 2 3 4 5 6 7 8 9 10 11 12 13 14 15 16 17 18 19 20 21 22 23
000
FTUS44 KOHX 172340
TAFBNA
TAF
KBNA 172340Z 1800/1824 17012KT P6SM SCT050 BKN080
     FM180700 18012G20KT P6SM OVC070 WS020/20050KT
     FM181500 20018G30KT P6SM VCSH BKN025
     FM182000 22020G33KT 3SM SHRA OVC025
     FM182200 30020G30KT P6SM VCSH OVC015=

USA.gov is the U.S. government's official web portal to all federal, state and local government web resources and services.